sensor_id;sensor_type;location;lat;lon;timestamp;temperature;humidity
10030;DHT22;5055;52.054;8.524;2022-11-14T00:00:04;0.80;97.00
10030;DHT22;5055;52.054;8.524;2022-11-14T00:02:33;0.70;97.00
10030;DHT22;5055;52.054;8.524;2022-11-14T00:05:01;0.70;97.00
10030;DHT22;5055;52.054;8.524;2022-11-14T00:07:30;0.70;97.00
10030;DHT22;5055;52.054;8.524;2022-11-14T00:09:59;0.70;97.00
10030;DHT22;5055;52.054;8.524;2022-11-14T00:12:27;0.70;97.00
10030;DHT22;5055;52.054;8.524;2022-11-14T00:14:57;0.70;97.00
10030;DHT22;5055;52.054;8.524;2022-11-14T00:17:26;0.60;97.00
10030;DHT22;5055;52.054;8.524;2022-11-14T00:19:54;0.60;97.00
10030;DHT22;5055;52.054;8.524;2022-11-14T00:22:22;0.60;97.00
10030;DHT22;5055;52.054;8.524;2022-11-14T00:24:51;0.60;97.00
10030;DHT22;5055;52.054;8.524;2022-11-14T00:27:19;0.60;97.00
10030;DHT22;5055;52.054;8.524;2022-11-14T00:29:48;0.50;97.00
10030;DHT22;5055;52.054;8.524;2022-11-14T00:32:17;0.50;97.00
10030;DHT22;5055;52.054;8.524;2022-11-14T00:34:47;0.50;97.00
10030;DHT22;5055;52.054;8.524;2022-11-14T00:37:15;0.40;97.00
10030;DHT22;5055;52.054;8.524;2022-11-14T00:39:44;0.40;97.00
10030;DHT22;5055;52.054;8.524;2022-11-14T00:42:12;0.30;97.00
10030;DHT22;5055;52.054;8.524;2022-11-14T00:44:41;0.30;97.00
10030;DHT22;5055;52.054;8.524;2022-11-14T00:47:09;0.20;97.00
10030;DHT22;5055;52.054;8.524;2022-11-14T00:49:40;0.20;97.00
10030;DHT22;5055;52.054;8.524;2022-11-14T00:52:09;0.10;97.00
10030;DHT22;5055;52.054;8.524;2022-11-14T00:54:40;0.10;97.00
10030;DHT22;5055;52.054;8.524;2022-11-14T00:57:08;0.10;97.00
10030;DHT22;5055;52.054;8.524;2022-11-14T00:59:36;0.00;97.00
10030;DHT22;5055;52.054;8.524;2022-11-14T01:02:05;0.00;97.00
10030;DHT22;5055;52.054;8.524;2022-11-14T01:04:34;-0.10;97.00
10030;DHT22;5055;52.054;8.524;2022-11-14T01:07:04;-0.10;97.00
10030;DHT22;5055;52.054;8.524;2022-11-14T01:09:32;-0.10;97.00
10030;DHT22;5055;52.054;8.524;2022-11-14T01:12:01;-0.10;97.00
10030;DHT22;5055;52.054;8.524;2022-11-14T01:14:29;-0.10;97.00
10030;DHT22;5055;52.054;8.524;2022-11-14T01:16:58;-0.20;97.00
10030;DHT22;5055;52.054;8.524;2022-11-14T01:19:26;-0.20;97.00
10030;DHT22;5055;52.054;8.524;2022-11-14T01:21:54;-0.20;97.00
10030;DHT22;5055;52.054;8.524;2022-11-14T01:24:32;-0.20;97.00
10030;DHT22;5055;52.054;8.524;2022-11-14T01:27:01;-0.20;97.00
10030;DHT22;5055;52.054;8.524;2022-11-14T01:29:30;-0.20;97.00
10030;DHT22;5055;52.054;8.524;2022-11-14T01:31:58;-0.20;97.00
10030;DHT22;5055;52.054;8.524;2022-11-14T01:34:27;-0.30;97.00
10030;DHT22;5055;52.054;8.524;2022-11-14T01:36:56;-0.30;97.00
10030;DHT22;5055;52.054;8.524;2022-11-14T01:39:25;-0.30;97.00
10030;DHT22;5055;52.054;8.524;2022-11-14T01:41:55;-0.40;97.00
10030;DHT22;5055;52.054;8.524;2022-11-14T01:44:45;-0.40;97.00
10030;DHT22;5055;52.054;8.524;2022-11-14T01:47:18;-0.40;97.00
10030;DHT22;5055;52.054;8.524;2022-11-14T01:49:50;-0.50;97.00
10030;DHT22;5055;52.054;8.524;2022-11-14T01:52:30;-0.50;97.00
10030;DHT22;5055;52.054;8.524;2022-11-14T01:55:16;-0.50;97.00
10030;DHT22;5055;52.054;8.524;2022-11-14T01:58:36;-0.50;97.00
10030;DHT22;5055;52.054;8.524;2022-11-14T02:01:33;-0.60;97.00
10030;DHT22;5055;52.054;8.524;2022-11-14T02:04:44;-0.60;97.00
10030;DHT22;5055;52.054;8.524;2022-11-14T02:07:25;-0.70;97.00
10030;DHT22;5055;52.054;8.524;2022-11-14T02:10:30;-0.70;97.00
10030;DHT22;5055;52.054;8.524;2022-11-14T02:13:20;-0.70;97.00
10030;DHT22;5055;52.054;8.524;2022-11-14T02:19:53;-0.80;97.00
10030;DHT22;5055;52.054;8.524;2022-11-14T02:22:50;-0.80;97.00
10030;DHT22;5055;52.054;8.524;2022-11-14T02:25:42;-0.80;97.00
10030;DHT22;5055;52.054;8.524;2022-11-14T02:28:40;-0.80;97.00
10030;DHT22;5055;52.054;8.524;2022-11-14T02:31:28;-0.80;97.00
10030;DHT22;5055;52.054;8.524;2022-11-14T02:34:49;-0.80;97.00
10030;DHT22;5055;52.054;8.524;2022-11-14T02:37:41;-0.80;97.00
10030;DHT22;5055;52.054;8.524;2022-11-14T02:40:40;-0.80;97.00
10030;DHT22;5055;52.054;8.524;2022-11-14T02:43:20;-0.80;97.00
10030;DHT22;5055;52.054;8.524;2022-11-14T02:45:57;-0.90;97.00
10030;DHT22;5055;52.054;8.524;2022-11-14T02:49:02;-0.90;97.00
10030;DHT22;5055;52.054;8.524;2022-11-14T02:52:02;-0.90;97.00
10030;DHT22;5055;52.054;8.524;2022-11-14T02:54:44;-0.90;97.00
10030;DHT22;5055;52.054;8.524;2022-11-14T02:57:33;-0.90;97.00
10030;DHT22;5055;52.054;8.524;2022-11-14T03:00:29;-0.90;97.00
10030;DHT22;5055;52.054;8.524;2022-11-14T03:03:34;-0.90;97.00
10030;DHT22;5055;52.054;8.524;2022-11-14T03:06:14;-1.00;97.00
10030;DHT22;5055;52.054;8.524;2022-11-14T03:08:57;-1.00;97.00
10030;DHT22;5055;52.054;8.524;2022-11-14T03:12:06;-1.10;97.00
10030;DHT22;5055;52.054;8.524;2022-11-14T03:15:07;-1.10;97.00
10030;DHT22;5055;52.054;8.524;2022-11-14T03:18:01;-1.10;97.00
10030;DHT22;5055;52.054;8.524;2022-11-14T03:20:49;-1.10;97.00
10030;DHT22;5055;52.054;8.524;2022-11-14T03:23:39;-1.10;97.00
10030;DHT22;5055;52.054;8.524;2022-11-14T03:27:01;-1.10;97.00
10030;DHT22;5055;52.054;8.524;2022-11-14T03:30:26;-1.10;97.00
10030;DHT22;5055;52.054;8.524;2022-11-14T03:33:13;-1.20;97.00
10030;DHT22;5055;52.054;8.524;2022-11-14T03:36:13;-1.20;97.00
10030;DHT22;5055;52.054;8.524;2022-11-14T03:39:07;-1.20;97.00
10030;DHT22;5055;52.054;8.524;2022-11-14T03:42:02;-1.20;97.00
10030;DHT22;5055;52.054;8.524;2022-11-14T03:44:57;-1.10;97.00
10030;DHT22;5055;52.054;8.524;2022-11-14T03:47:46;-1.10;97.00
10030;DHT22;5055;52.054;8.524;2022-11-14T03:50:51;-1.10;97.00
10030;DHT22;5055;52.054;8.524;2022-11-14T03:53:32;-1.10;97.00
10030;DHT22;5055;52.054;8.524;2022-11-14T03:56:33;-1.10;97.00
10030;DHT22;5055;52.054;8.524;2022-11-14T03:59:22;-1.10;97.00
10030;DHT22;5055;52.054;8.524;2022-11-14T04:02:05;-1.10;97.00
10030;DHT22;5055;52.054;8.524;2022-11-14T04:04:59;-1.10;97.00
10030;DHT22;5055;52.054;8.524;2022-11-14T04:07:42;-1.10;97.00
10030;DHT22;5055;52.054;8.524;2022-11-14T04:10:35;-1.10;97.00
10030;DHT22;5055;52.054;8.524;2022-11-14T04:13:40;-1.10;97.00
10030;DHT22;5055;52.054;8.524;2022-11-14T04:16:51;-1.10;97.00
10030;DHT22;5055;52.054;8.524;2022-11-14T04:19:47;-1.10;97.00
10030;DHT22;5055;52.054;8.524;2022-11-14T04:22:59;-1.10;97.00
10030;DHT22;5055;52.054;8.524;2022-11-14T04:25:50;-1.10;97.00
10030;DHT22;5055;52.054;8.524;2022-11-14T04:28:41;-1.10;97.00
10030;DHT22;5055;52.054;8.524;2022-11-14T04:31:30;-1.10;97.00
10030;DHT22;5055;52.054;8.524;2022-11-14T04:34:53;-1.00;97.00
10030;DHT22;5055;52.054;8.524;2022-11-14T04:37:40;-1.00;97.00
10030;DHT22;5055;52.054;8.524;2022-11-14T04:43:56;-1.00;97.00
10030;DHT22;5055;52.054;8.524;2022-11-14T04:46:50;-1.00;97.00
10030;DHT22;5055;52.054;8.524;2022-11-14T04:50:18;-1.00;97.00
10030;DHT22;5055;52.054;8.524;2022-11-14T04:53:04;-1.10;97.00
10030;DHT22;5055;52.054;8.524;2022-11-14T04:56:00;-1.10;97.00
10030;DHT22;5055;52.054;8.524;2022-11-14T04:59:05;-1.10;97.00
10030;DHT22;5055;52.054;8.524;2022-11-14T05:02:16;-1.20;97.00
10030;DHT22;5055;52.054;8.524;2022-11-14T05:05:15;-1.10;97.00
10030;DHT22;5055;52.054;8.524;2022-11-14T05:08:11;-1.20;97.00
10030;DHT22;5055;52.054;8.524;2022-11-14T05:10:53;-1.20;97.00
10030;DHT22;5055;52.054;8.524;2022-11-14T05:13:50;-1.20;97.00
10030;DHT22;5055;52.054;8.524;2022-11-14T05:19:58;-1.20;97.00
10030;DHT22;5055;52.054;8.524;2022-11-14T05:25:43;-1.20;97.00
10030;DHT22;5055;52.054;8.524;2022-11-14T05:28:40;-1.20;97.00
10030;DHT22;5055;52.054;8.524;2022-11-14T05:31:45;-1.20;97.00
10030;DHT22;5055;52.054;8.524;2022-11-14T05:34:32;-1.20;97.00
10030;DHT22;5055;52.054;8.524;2022-11-14T05:37:22;-1.20;97.00
10030;DHT22;5055;52.054;8.524;2022-11-14T05:40:15;-1.20;97.00
10030;DHT22;5055;52.054;8.524;2022-11-14T05:43:01;-1.20;97.00
10030;DHT22;5055;52.054;8.524;2022-11-14T05:45:40;-1.20;97.00
10030;DHT22;5055;52.054;8.524;2022-11-14T05:48:54;-1.20;97.00
10030;DHT22;5055;52.054;8.524;2022-11-14T05:52:02;-1.30;97.00
10030;DHT22;5055;52.054;8.524;2022-11-14T05:54:45;-1.30;97.00
10030;DHT22;5055;52.054;8.524;2022-11-14T05:57:45;-1.30;97.00
10030;DHT22;5055;52.054;8.524;2022-11-14T06:00:23;-1.30;97.00
10030;DHT22;5055;52.054;8.524;2022-11-14T06:03:20;-1.30;97.00
10030;DHT22;5055;52.054;8.524;2022-11-14T06:06:10;-1.30;97.00
10030;DHT22;5055;52.054;8.524;2022-11-14T06:08:53;-1.20;97.00
10030;DHT22;5055;52.054;8.524;2022-11-14T06:11:46;-1.20;97.00
10030;DHT22;5055;52.054;8.524;2022-11-14T06:14:44;-1.20;97.00
10030;DHT22;5055;52.054;8.524;2022-11-14T06:17:28;-1.20;97.00
10030;DHT22;5055;52.054;8.524;2022-11-14T06:20:28;-1.20;97.00
10030;DHT22;5055;52.054;8.524;2022-11-14T06:23:20;-1.20;97.00
10030;DHT22;5055;52.054;8.524;2022-11-14T06:26:04;-1.20;97.00
10030;DHT22;5055;52.054;8.524;2022-11-14T06:28:43;-1.20;97.00
10030;DHT22;5055;52.054;8.524;2022-11-14T06:31:54;-1.20;97.00
10030;DHT22;5055;52.054;8.524;2022-11-14T06:34:41;-1.20;97.00
10030;DHT22;5055;52.054;8.524;2022-11-14T06:37:22;-1.20;97.00
10030;DHT22;5055;52.054;8.524;2022-11-14T06:40:06;-1.20;97.00
10030;DHT22;5055;52.054;8.524;2022-11-14T06:43:03;-1.20;97.00
10030;DHT22;5055;52.054;8.524;2022-11-14T06:46:02;-1.10;97.00
10030;DHT22;5055;52.054;8.524;2022-11-14T06:48:54;-1.10;97.00
10030;DHT22;5055;52.054;8.524;2022-11-14T06:51:38;-1.00;97.00
10030;DHT22;5055;52.054;8.524;2022-11-14T06:54:21;-1.10;97.00
10030;DHT22;5055;52.054;8.524;2022-11-14T06:57:18;-1.00;97.00
10030;DHT22;5055;52.054;8.524;2022-11-14T06:59:58;-1.00;97.00
10030;DHT22;5055;52.054;8.524;2022-11-14T07:02:36;-1.00;97.00
10030;DHT22;5055;52.054;8.524;2022-11-14T07:05:18;-0.90;97.00
10030;DHT22;5055;52.054;8.524;2022-11-14T07:08:13;-0.90;97.00
10030;DHT22;5055;52.054;8.524;2022-11-14T07:10:56;-0.90;97.00
10030;DHT22;5055;52.054;8.524;2022-11-14T07:13:39;-0.90;97.00
10030;DHT22;5055;52.054;8.524;2022-11-14T07:16:12;-0.80;97.00
10030;DHT22;5055;52.054;8.524;2022-11-14T07:18:52;-0.80;97.00
10030;DHT22;5055;52.054;8.524;2022-11-14T07:21:38;-0.80;97.00
10030;DHT22;5055;52.054;8.524;2022-11-14T07:24:10;-0.80;97.00
10030;DHT22;5055;52.054;8.524;2022-11-14T07:27:11;-0.70;97.00
10030;DHT22;5055;52.054;8.524;2022-11-14T07:30:07;-0.70;97.00
10030;DHT22;5055;52.054;8.524;2022-11-14T07:33:12;-0.50;97.00
10030;DHT22;5055;52.054;8.524;2022-11-14T07:36:00;-0.30;97.00
10030;DHT22;5055;52.054;8.524;2022-11-14T07:38:37;0.00;97.00
10030;DHT22;5055;52.054;8.524;2022-11-14T07:41:17;0.40;97.00
10030;DHT22;5055;52.054;8.524;2022-11-14T07:43:57;0.80;97.00
10030;DHT22;5055;52.054;8.524;2022-11-14T07:46:27;1.10;97.00
10030;DHT22;5055;52.054;8.524;2022-11-14T07:48:55;1.40;97.00
10030;DHT22;5055;52.054;8.524;2022-11-14T07:51:24;1.70;97.00
10030;DHT22;5055;52.054;8.524;2022-11-14T07:53:52;2.00;97.00
10030;DHT22;5055;52.054;8.524;2022-11-14T07:56:20;2.30;97.00
10030;DHT22;5055;52.054;8.524;2022-11-14T07:58:50;2.50;97.00
10030;DHT22;5055;52.054;8.524;2022-11-14T08:01:18;2.80;97.00
10030;DHT22;5055;52.054;8.524;2022-11-14T08:03:48;3.10;97.00
10030;DHT22;5055;52.054;8.524;2022-11-14T08:06:17;3.40;97.00
10030;DHT22;5055;52.054;8.524;2022-11-14T08:08:45;3.70;97.00
10030;DHT22;5055;52.054;8.524;2022-11-14T08:11:13;4.00;97.00
10030;DHT22;5055;52.054;8.524;2022-11-14T08:14:00;4.20;97.00
10030;DHT22;5055;52.054;8.524;2022-11-14T08:16:28;4.50;97.00
10030;DHT22;5055;52.054;8.524;2022-11-14T08:18:58;4.70;97.00
10030;DHT22;5055;52.054;8.524;2022-11-14T08:21:27;4.90;97.00
10030;DHT22;5055;52.054;8.524;2022-11-14T08:23:55;5.20;97.00
10030;DHT22;5055;52.054;8.524;2022-11-14T08:26:24;5.40;97.00
10030;DHT22;5055;52.054;8.524;2022-11-14T08:29:02;5.70;97.00
10030;DHT22;5055;52.054;8.524;2022-11-14T08:31:31;5.80;97.00
10030;DHT22;5055;52.054;8.524;2022-11-14T08:34:01;6.10;97.00
10030;DHT22;5055;52.054;8.524;2022-11-14T08:36:29;6.50;97.00
10030;DHT22;5055;52.054;8.524;2022-11-14T08:38:57;6.80;97.00
10030;DHT22;5055;52.054;8.524;2022-11-14T08:41:28;7.00;97.00
10030;DHT22;5055;52.054;8.524;2022-11-14T08:43:56;7.20;97.00
10030;DHT22;5055;52.054;8.524;2022-11-14T08:46:25;7.30;97.00
10030;DHT22;5055;52.054;8.524;2022-11-14T08:48:53;7.20;97.00
10030;DHT22;5055;52.054;8.524;2022-11-14T08:51:23;7.40;97.00
10030;DHT22;5055;52.054;8.524;2022-11-14T08:53:52;7.60;97.00
10030;DHT22;5055;52.054;8.524;2022-11-14T08:56:20;7.70;97.00
10030;DHT22;5055;52.054;8.524;2022-11-14T08:58:48;7.80;97.00
10030;DHT22;5055;52.054;8.524;2022-11-14T09:01:17;7.90;97.00
10030;DHT22;5055;52.054;8.524;2022-11-14T09:03:45;8.10;97.00
10030;DHT22;5055;52.054;8.524;2022-11-14T09:06:14;8.20;97.00
10030;DHT22;5055;52.054;8.524;2022-11-14T09:08:44;8.40;97.00
10030;DHT22;5055;52.054;8.524;2022-11-14T09:11:12;8.40;97.00
10030;DHT22;5055;52.054;8.524;2022-11-14T09:13:45;8.40;97.00
10030;DHT22;5055;52.054;8.524;2022-11-14T09:16:13;8.40;97.00
10030;DHT22;5055;52.054;8.524;2022-11-14T09:18:42;8.30;97.00
10030;DHT22;5055;52.054;8.524;2022-11-14T09:21:10;8.30;97.00
10030;DHT22;5055;52.054;8.524;2022-11-14T09:23:45;8.40;97.00
10030;DHT22;5055;52.054;8.524;2022-11-14T09:26:13;8.40;97.00
10030;DHT22;5055;52.054;8.524;2022-11-14T09:28:42;8.10;97.00
10030;DHT22;5055;52.054;8.524;2022-11-14T09:31:11;8.20;97.00
10030;DHT22;5055;52.054;8.524;2022-11-14T09:33:40;8.30;97.00
10030;DHT22;5055;52.054;8.524;2022-11-14T09:36:10;8.40;97.00
10030;DHT22;5055;52.054;8.524;2022-11-14T09:38:41;8.50;97.00
10030;DHT22;5055;52.054;8.524;2022-11-14T09:41:22;8.60;97.00
10030;DHT22;5055;52.054;8.524;2022-11-14T09:44:17;8.50;97.00
10030;DHT22;5055;52.054;8.524;2022-11-14T09:46:53;8.60;97.00
10030;DHT22;5055;52.054;8.524;2022-11-14T09:49:28;8.60;97.00
10030;DHT22;5055;52.054;8.524;2022-11-14T09:52:04;8.90;97.00
10030;DHT22;5055;52.054;8.524;2022-11-14T09:54:43;8.90;97.00
10030;DHT22;5055;52.054;8.524;2022-11-14T09:57:15;9.30;97.00
10030;DHT22;5055;52.054;8.524;2022-11-14T09:59:44;9.50;97.00
10030;DHT22;5055;52.054;8.524;2022-11-14T10:02:31;9.70;97.00
10030;DHT22;5055;52.054;8.524;2022-11-14T10:05:15;9.80;97.00
10030;DHT22;5055;52.054;8.524;2022-11-14T10:07:56;10.20;97.00
10030;DHT22;5055;52.054;8.524;2022-11-14T10:10:42;10.30;97.00
10030;DHT22;5055;52.054;8.524;2022-11-14T10:13:35;10.30;97.00
10030;DHT22;5055;52.054;8.524;2022-11-14T10:16:11;10.50;97.00
10030;DHT22;5055;52.054;8.524;2022-11-14T10:19:02;10.50;97.00
10030;DHT22;5055;52.054;8.524;2022-11-14T10:21:43;10.50;97.00
10030;DHT22;5055;52.054;8.524;2022-11-14T10:24:26;10.50;97.00
10030;DHT22;5055;52.054;8.524;2022-11-14T10:27:01;10.60;97.00
10030;DHT22;5055;52.054;8.524;2022-11-14T10:29:43;10.60;97.00
10030;DHT22;5055;52.054;8.524;2022-11-14T10:32:25;10.30;97.00
10030;DHT22;5055;52.054;8.524;2022-11-14T10:35:01;10.10;97.00
10030;DHT22;5055;52.054;8.524;2022-11-14T10:37:34;10.10;97.00
10030;DHT22;5055;52.054;8.524;2022-11-14T10:40:14;10.20;97.00
10030;DHT22;5055;52.054;8.524;2022-11-14T10:42:46;10.10;97.00
10030;DHT22;5055;52.054;8.524;2022-11-14T10:45:23;10.10;97.00
10030;DHT22;5055;52.054;8.524;2022-11-14T10:47:56;10.10;97.00
10030;DHT22;5055;52.054;8.524;2022-11-14T10:50:32;9.80;97.00
10030;DHT22;5055;52.054;8.524;2022-11-14T10:53:10;9.70;97.00
10030;DHT22;5055;52.054;8.524;2022-11-14T10:55:41;9.60;97.00
10030;DHT22;5055;52.054;8.524;2022-11-14T10:58:29;9.50;97.00
10030;DHT22;5055;52.054;8.524;2022-11-14T11:01:35;9.50;97.00
10030;DHT22;5055;52.054;8.524;2022-11-14T11:04:22;9.70;97.00
10030;DHT22;5055;52.054;8.524;2022-11-14T11:06:53;9.80;97.00
10030;DHT22;5055;52.054;8.524;2022-11-14T11:09:24;9.80;97.00
10030;DHT22;5055;52.054;8.524;2022-11-14T11:12:16;10.00;97.00
10030;DHT22;5055;52.054;8.524;2022-11-14T11:14:46;10.10;97.00
10030;DHT22;5055;52.054;8.524;2022-11-14T11:17:21;10.10;97.00
10030;DHT22;5055;52.054;8.524;2022-11-14T11:20:26;10.10;97.00
10030;DHT22;5055;52.054;8.524;2022-11-14T11:23:03;10.20;97.00
10030;DHT22;5055;52.054;8.524;2022-11-14T11:25:32;10.20;97.00
10030;DHT22;5055;52.054;8.524;2022-11-14T11:28:06;10.30;97.00
10030;DHT22;5055;52.054;8.524;2022-11-14T11:30:38;10.30;97.00
10030;DHT22;5055;52.054;8.524;2022-11-14T11:33:23;10.30;97.00
10030;DHT22;5055;52.054;8.524;2022-11-14T11:35:55;10.30;97.00
10030;DHT22;5055;52.054;8.524;2022-11-14T11:38:25;10.30;97.00
10030;DHT22;5055;52.054;8.524;2022-11-14T11:41:03;10.40;97.00
10030;DHT22;5055;52.054;8.524;2022-11-14T11:43:49;10.50;97.00
10030;DHT22;5055;52.054;8.524;2022-11-14T11:46:28;10.40;97.00
10030;DHT22;5055;52.054;8.524;2022-11-14T11:49:04;10.50;97.00
10030;DHT22;5055;52.054;8.524;2022-11-14T11:51:38;10.50;97.00
10030;DHT22;5055;52.054;8.524;2022-11-14T11:54:13;10.60;97.00
10030;DHT22;5055;52.054;8.524;2022-11-14T11:56:45;10.60;97.00
10030;DHT22;5055;52.054;8.524;2022-11-14T11:59:27;10.60;97.00
10030;DHT22;5055;52.054;8.524;2022-11-14T12:02:00;10.70;97.00
10030;DHT22;5055;52.054;8.524;2022-11-14T12:04:30;10.70;97.00
10030;DHT22;5055;52.054;8.524;2022-11-14T12:07:09;10.80;97.00
10030;DHT22;5055;52.054;8.524;2022-11-14T12:09:40;10.90;97.00
10030;DHT22;5055;52.054;8.524;2022-11-14T12:12:38;11.00;97.00
10030;DHT22;5055;52.054;8.524;2022-11-14T12:15:21;10.90;97.00
10030;DHT22;5055;52.054;8.524;2022-11-14T12:18:14;10.90;97.00
10030;DHT22;5055;52.054;8.524;2022-11-14T12:21:02;10.90;97.00
10030;DHT22;5055;52.054;8.524;2022-11-14T12:23:59;10.80;97.00
10030;DHT22;5055;52.054;8.524;2022-11-14T12:26:47;10.90;97.00
10030;DHT22;5055;52.054;8.524;2022-11-14T12:29:34;10.90;97.00
10030;DHT22;5055;52.054;8.524;2022-11-14T12:32:12;10.90;97.00
10030;DHT22;5055;52.054;8.524;2022-11-14T12:34:43;11.20;97.00
10030;DHT22;5055;52.054;8.524;2022-11-14T12:37:17;11.70;97.00
10030;DHT22;5055;52.054;8.524;2022-11-14T12:39:55;12.40;97.00
10030;DHT22;5055;52.054;8.524;2022-11-14T12:42:24;13.10;97.00
10030;DHT22;5055;52.054;8.524;2022-11-14T12:44:52;13.60;97.00
10030;DHT22;5055;52.054;8.524;2022-11-14T12:47:22;14.00;97.00
10030;DHT22;5055;52.054;8.524;2022-11-14T12:52:50;15.00;97.00
10030;DHT22;5055;52.054;8.524;2022-11-14T12:55:54;15.00;97.00
10030;DHT22;5055;52.054;8.524;2022-11-14T12:58:41;15.10;97.00
10030;DHT22;5055;52.054;8.524;2022-11-14T13:01:35;15.20;97.00
10030;DHT22;5055;52.054;8.524;2022-11-14T13:04:16;15.40;97.00
10030;DHT22;5055;52.054;8.524;2022-11-14T13:06:51;15.70;97.00
10030;DHT22;5055;52.054;8.524;2022-11-14T13:09:31;15.80;97.00
10030;DHT22;5055;52.054;8.524;2022-11-14T13:12:24;15.90;97.00
10030;DHT22;5055;52.054;8.524;2022-11-14T13:15:26;16.10;97.00
10030;DHT22;5055;52.054;8.524;2022-11-14T13:18:21;15.30;97.00
10030;DHT22;5055;52.054;8.524;2022-11-14T13:21:24;15.20;97.00
10030;DHT22;5055;52.054;8.524;2022-11-14T13:24:13;15.10;97.00
10030;DHT22;5055;52.054;8.524;2022-11-14T13:26:48;15.30;97.00
10030;DHT22;5055;52.054;8.524;2022-11-14T13:29:50;15.50;97.00
10030;DHT22;5055;52.054;8.524;2022-11-14T13:35:53;15.70;97.00
10030;DHT22;5055;52.054;8.524;2022-11-14T13:39:04;16.40;97.00
10030;DHT22;5055;52.054;8.524;2022-11-14T13:45:10;16.60;97.00
10030;DHT22;5055;52.054;8.524;2022-11-14T13:48:10;16.60;97.00
10030;DHT22;5055;52.054;8.524;2022-11-14T13:50:46;16.40;97.00
10030;DHT22;5055;52.054;8.524;2022-11-14T13:53:18;16.00;97.00
10030;DHT22;5055;52.054;8.524;2022-11-14T13:55:55;15.80;97.00
10030;DHT22;5055;52.054;8.524;2022-11-14T13:58:41;16.10;97.00
10030;DHT22;5055;52.054;8.524;2022-11-14T14:01:23;15.80;97.00
10030;DHT22;5055;52.054;8.524;2022-11-14T14:04:16;15.70;97.00
10030;DHT22;5055;52.054;8.524;2022-11-14T14:06:56;15.80;97.00
10030;DHT22;5055;52.054;8.524;2022-11-14T14:09:33;15.90;97.00
10030;DHT22;5055;52.054;8.524;2022-11-14T14:12:17;15.70;97.00
10030;DHT22;5055;52.054;8.524;2022-11-14T14:15:01;16.00;97.00
10030;DHT22;5055;52.054;8.524;2022-11-14T14:17:43;15.70;97.00
10030;DHT22;5055;52.054;8.524;2022-11-14T14:20:20;15.80;97.00
10030;DHT22;5055;52.054;8.524;2022-11-14T14:22:59;15.40;97.00
10030;DHT22;5055;52.054;8.524;2022-11-14T14:25:36;15.40;97.00
10030;DHT22;5055;52.054;8.524;2022-11-14T14:28:14;15.40;97.00
10030;DHT22;5055;52.054;8.524;2022-11-14T14:31:03;15.20;97.00
10030;DHT22;5055;52.054;8.524;2022-11-14T14:33:41;15.30;97.00
10030;DHT22;5055;52.054;8.524;2022-11-14T14:36:19;15.00;97.00
10030;DHT22;5055;52.054;8.524;2022-11-14T14:38:48;14.90;97.00
10030;DHT22;5055;52.054;8.524;2022-11-14T14:41:18;14.60;97.00
10030;DHT22;5055;52.054;8.524;2022-11-14T14:43:53;14.40;97.00
10030;DHT22;5055;52.054;8.524;2022-11-14T14:46:28;13.80;97.00
10030;DHT22;5055;52.054;8.524;2022-11-14T14:49:00;13.20;97.00
10030;DHT22;5055;52.054;8.524;2022-11-14T14:51:31;12.80;97.00
10030;DHT22;5055;52.054;8.524;2022-11-14T14:54:00;12.50;97.00
10030;DHT22;5055;52.054;8.524;2022-11-14T14:56:29;12.30;97.00
10030;DHT22;5055;52.054;8.524;2022-11-14T14:59:14;12.10;97.00
10030;DHT22;5055;52.054;8.524;2022-11-14T15:01:43;11.90;97.00
10030;DHT22;5055;52.054;8.524;2022-11-14T15:04:14;11.80;97.00
10030;DHT22;5055;52.054;8.524;2022-11-14T15:06:45;11.70;97.00
10030;DHT22;5055;52.054;8.524;2022-11-14T15:09:17;11.60;97.00
10030;DHT22;5055;52.054;8.524;2022-11-14T15:11:48;11.40;97.00
10030;DHT22;5055;52.054;8.524;2022-11-14T15:14:19;11.30;97.00
10030;DHT22;5055;52.054;8.524;2022-11-14T15:16:49;11.20;97.00
10030;DHT22;5055;52.054;8.524;2022-11-14T15:19:21;11.00;97.00
10030;DHT22;5055;52.054;8.524;2022-11-14T15:22:01;10.90;97.00
10030;DHT22;5055;52.054;8.524;2022-11-14T15:24:30;10.90;97.00
10030;DHT22;5055;52.054;8.524;2022-11-14T15:27:03;10.80;97.00
10030;DHT22;5055;52.054;8.524;2022-11-14T15:29:32;10.70;97.00
10030;DHT22;5055;52.054;8.524;2022-11-14T15:32:02;10.60;97.00
10030;DHT22;5055;52.054;8.524;2022-11-14T15:34:36;10.50;97.00
10030;DHT22;5055;52.054;8.524;2022-11-14T15:39:50;10.40;97.00
10030;DHT22;5055;52.054;8.524;2022-11-14T15:42:26;10.30;97.00
10030;DHT22;5055;52.054;8.524;2022-11-14T15:44:55;10.30;97.00
10030;DHT22;5055;52.054;8.524;2022-11-14T15:47:26;10.30;97.00
10030;DHT22;5055;52.054;8.524;2022-11-14T15:50:03;10.30;97.00
10030;DHT22;5055;52.054;8.524;2022-11-14T15:52:34;10.20;97.00
10030;DHT22;5055;52.054;8.524;2022-11-14T15:55:11;10.10;97.00
10030;DHT22;5055;52.054;8.524;2022-11-14T15:57:40;10.10;97.00
10030;DHT22;5055;52.054;8.524;2022-11-14T16:00:18;10.00;97.00
10030;DHT22;5055;52.054;8.524;2022-11-14T16:02:49;9.90;97.00
10030;DHT22;5055;52.054;8.524;2022-11-14T16:05:23;9.90;97.00
10030;DHT22;5055;52.054;8.524;2022-11-14T16:07:53;9.80;97.00
10030;DHT22;5055;52.054;8.524;2022-11-14T16:10:23;9.70;97.00
10030;DHT22;5055;52.054;8.524;2022-11-14T16:12:52;9.60;97.00
10030;DHT22;5055;52.054;8.524;2022-11-14T16:15:21;9.60;97.00
10030;DHT22;5055;52.054;8.524;2022-11-14T16:17:50;9.50;97.00
10030;DHT22;5055;52.054;8.524;2022-11-14T16:20:21;9.40;97.00
10030;DHT22;5055;52.054;8.524;2022-11-14T16:22:51;9.40;97.00
10030;DHT22;5055;52.054;8.524;2022-11-14T16:25:23;9.30;97.00
10030;DHT22;5055;52.054;8.524;2022-11-14T16:27:52;9.30;97.00
10030;DHT22;5055;52.054;8.524;2022-11-14T16:30:23;9.10;97.00
10030;DHT22;5055;52.054;8.524;2022-11-14T16:32:52;9.00;97.00
10030;DHT22;5055;52.054;8.524;2022-11-14T16:35:24;8.90;97.00
10030;DHT22;5055;52.054;8.524;2022-11-14T16:37:54;8.80;97.00
10030;DHT22;5055;52.054;8.524;2022-11-14T16:40:25;8.70;97.00
10030;DHT22;5055;52.054;8.524;2022-11-14T16:42:55;8.60;97.00
10030;DHT22;5055;52.054;8.524;2022-11-14T16:45:24;8.40;97.00
10030;DHT22;5055;52.054;8.524;2022-11-14T16:47:54;8.30;97.00
10030;DHT22;5055;52.054;8.524;2022-11-14T16:50:24;8.20;97.00
10030;DHT22;5055;52.054;8.524;2022-11-14T16:52:53;8.10;97.00
10030;DHT22;5055;52.054;8.524;2022-11-14T16:55:21;8.00;97.00
10030;DHT22;5055;52.054;8.524;2022-11-14T16:57:50;8.00;97.00
10030;DHT22;5055;52.054;8.524;2022-11-14T17:00:19;7.90;97.00
10030;DHT22;5055;52.054;8.524;2022-11-14T17:02:47;7.80;97.00
10030;DHT22;5055;52.054;8.524;2022-11-14T17:05:16;7.80;97.00
10030;DHT22;5055;52.054;8.524;2022-11-14T17:07:46;7.80;97.00
10030;DHT22;5055;52.054;8.524;2022-11-14T17:10:15;7.80;97.00
10030;DHT22;5055;52.054;8.524;2022-11-14T17:12:43;7.80;97.00
10030;DHT22;5055;52.054;8.524;2022-11-14T17:15:12;7.80;97.00
10030;DHT22;5055;52.054;8.524;2022-11-14T17:17:40;7.80;97.00
10030;DHT22;5055;52.054;8.524;2022-11-14T17:20:16;7.80;97.00
10030;DHT22;5055;52.054;8.524;2022-11-14T17:22:47;7.80;97.00
10030;DHT22;5055;52.054;8.524;2022-11-14T17:25:16;7.80;97.00
10030;DHT22;5055;52.054;8.524;2022-11-14T17:27:44;7.80;97.00
10030;DHT22;5055;52.054;8.524;2022-11-14T17:30:15;7.80;97.00
10030;DHT22;5055;52.054;8.524;2022-11-14T17:32:44;7.80;97.00
10030;DHT22;5055;52.054;8.524;2022-11-14T17:35:14;7.70;97.00
10030;DHT22;5055;52.054;8.524;2022-11-14T17:37:43;7.60;97.00
10030;DHT22;5055;52.054;8.524;2022-11-14T17:40:13;7.50;97.00